Time;durP1;ratioP1;P1;durP2;ratioP2;P2;SDS_P1;SDS_P2;PMS_P1;PMS_P2;Temp;Humidity;BMP_temperature;BMP_pressure;BME280_temperature;BME280_humidity;BME280_pressure;Samples;Min_cycle;Max_cycle;Signal;HPM_P1;HPM_P2
2021/03/03 00:01:28;;;;;;;2.20;2.00;;;24.50;50.80;;;;;;5076359;28;20454;-62
2021/03/03 00:03:54;;;;;;;2.67;2.47;;;24.60;50.90;;;;;;5076140;28;20443;-63
2021/03/03 00:06:20;;;;;;;2.30;2.20;;;24.50;50.80;;;;;;5076366;28;20516;-62
2021/03/03 00:08:47;;;;;;;3.37;2.80;;;24.50;50.80;;;;;;5076400;28;20442;-64
2021/03/03 00:11:13;;;;;;;2.53;2.33;;;24.50;50.80;;;;;;5076314;28;20461;-62
2021/03/03 00:13:40;;;;;;;2.63;2.23;;;24.50;50.80;;;;;;5076127;28;20501;-63
2021/03/03 00:16:06;;;;;;;2.57;2.37;;;24.50;50.80;;;;;;5076244;28;20448;-62
2021/03/03 00:18:33;;;;;;;2.67;2.47;;;24.50;50.80;;;;;;5076020;28;20499;-64
2021/03/03 00:20:59;;;;;;;3.80;2.67;;;24.50;50.80;;;;;;5076059;28;20445;-63
2021/03/03 00:23:26;;;;;;;2.40;2.20;;;24.50;50.80;;;;;;5075823;28;20452;-62
2021/03/03 00:25:52;;;;;;;2.33;2.13;;;24.60;50.90;;;;;;5076026;28;20442;-61
2021/03/03 00:28:18;;;;;;;2.60;2.40;;;24.60;50.90;;;;;;5075918;28;20454;-61
2021/03/03 00:30:45;;;;;;;2.00;1.90;;;24.50;50.80;;;;;;5075867;28;20435;-61
2021/03/03 00:33:11;;;;;;;2.10;2.00;;;24.50;50.80;;;;;;5075889;28;20931;-61
2021/03/03 00:35:38;;;;;;;2.97;2.77;;;24.50;50.80;;;;;;5075773;28;20492;-62
2021/03/03 00:38:04;;;;;;;2.47;2.30;;;24.50;50.80;;;;;;5075736;28;20487;-61
2021/03/03 00:40:31;;;;;;;2.33;2.13;;;24.50;50.70;;;;;;5074889;28;20442;-64
2021/03/03 00:42:57;;;;;;;2.67;2.10;;;24.50;50.70;;;;;;5075434;28;20439;-65
2021/03/03 00:45:24;;;;;;;2.13;2.03;;;24.50;50.70;;;;;;5075706;28;20433;-66
2021/03/03 00:47:51;;;;;;;2.40;2.20;;;24.50;51.40;;;;;;5075581;28;20451;-66
2021/03/03 00:50:17;;;;;;;2.33;2.23;;;24.50;50.80;;;;;;5075472;28;20440;-63
2021/03/03 00:52:43;;;;;;;3.00;2.67;;;24.50;50.70;;;;;;5075423;28;20448;-64
2021/03/03 00:55:11;;;;;;;2.10;2.00;;;24.50;50.80;;;;;;5075520;28;20475;-62
2021/03/03 00:57:39;;;;;;;2.43;2.23;;;24.50;50.80;;;;;;5075331;28;20790;-64
2021/03/03 01:00:07;;;;;;;2.43;2.03;;;24.50;50.80;;;;;;5075392;28;20448;-62
2021/03/03 01:02:33;;;;;;;3.07;2.10;;;24.50;50.80;;;;;;5075144;28;20447;-65
2021/03/03 01:05:00;;;;;;;2.50;2.30;;;24.50;51.40;;;;;;5075109;28;20468;-63
2021/03/03 01:07:26;;;;;;;2.20;2.10;;;24.50;50.80;;;;;;5075143;28;20455;-64
2021/03/03 01:09:53;;;;;;;2.90;2.70;;;24.50;50.80;;;;;;5075272;28;20447;-63
2021/03/03 01:12:19;;;;;;;2.20;2.00;;;24.50;50.80;;;;;;5074970;28;20949;-63
2021/03/03 01:14:45;;;;;;;2.30;2.10;;;24.50;50.80;;;;;;5075046;28;20837;-65
2021/03/03 01:17:12;;;;;;;2.37;2.17;;;24.50;50.70;;;;;;5074973;28;20439;-66
2021/03/03 01:19:38;;;;;;;2.57;2.00;;;24.50;51.40;;;;;;5074909;28;20485;-65
2021/03/03 01:22:05;;;;;;;1.97;1.87;;;24.50;50.80;;;;;;5074834;28;20505;-64
2021/03/03 01:24:32;;;;;;;2.50;2.13;;;24.50;50.80;;;;;;5074819;28;20443;-62
2021/03/03 01:26:59;;;;;;;2.60;2.40;;;24.50;50.80;;;;;;5074979;28;20454;-66
2021/03/03 01:29:25;;;;;;;2.40;2.20;;;24.50;50.80;;;;;;5074733;28;20458;-66
2021/03/03 01:31:51;;;;;;;3.00;2.23;;;24.50;50.80;;;;;;5074681;28;20443;-65
2021/03/03 01:34:18;;;;;;;2.30;2.20;;;24.50;50.80;;;;;;5074555;28;20463;-63
2021/03/03 01:36:44;;;;;;;2.03;1.93;;;24.50;50.80;;;;;;5074596;28;20510;-66
2021/03/03 01:39:11;;;;;;;2.70;2.50;;;24.50;50.80;;;;;;5074544;28;20480;-67
2021/03/03 01:41:37;;;;;;;2.13;1.80;;;24.50;50.70;;;;;;5074573;28;20443;-65
2021/03/03 01:44:04;;;;;;;2.70;2.50;;;24.50;50.80;;;;;;5074669;28;20440;-63
2021/03/03 01:46:30;;;;;;;2.27;2.17;;;24.50;50.80;;;;;;5074547;28;20444;-64
2021/03/03 01:48:57;;;;;;;2.10;1.90;;;24.50;50.80;;;;;;5074633;28;20451;-66
2021/03/03 01:51:23;;;;;;;2.70;2.50;;;24.50;50.70;;;;;;5074357;28;20435;-64
2021/03/03 01:53:49;;;;;;;2.70;2.40;;;24.50;50.80;;;;;;5074066;28;20478;-65
2021/03/03 01:56:17;;;;;;;2.10;2.00;;;24.50;50.80;;;;;;5074109;28;20794;-65
2021/03/03 01:58:43;;;;;;;2.30;2.10;;;24.40;50.70;;;;;;5074204;28;20490;-65
2021/03/03 02:01:09;;;;;;;2.50;2.40;;;24.40;50.70;;;;;;5074184;28;20443;-65
2021/03/03 02:03:38;;;;;;;2.97;2.77;;;24.40;50.70;;;;;;5073993;28;20454;-66
2021/03/03 02:06:12;;;;;;;2.30;2.20;;;24.40;50.70;;;;;;5074084;28;20810;-62
2021/03/03 02:08:43;;;;;;;2.90;2.70;;;24.40;50.60;;;;;;5074220;28;20751;-64
2021/03/03 02:11:16;;;;;;;2.40;2.20;;;24.40;50.60;;;;;;5074012;28;20913;-65
2021/03/03 02:13:46;;;;;;;2.43;2.33;;;24.50;50.70;;;;;;5073988;28;20443;-66
2021/03/03 02:16:13;;;;;;;2.67;2.47;;;24.50;50.80;;;;;;5073800;28;20452;-65
2021/03/03 02:18:42;;;;;;;2.50;2.30;;;24.40;50.70;;;;;;5073639;28;20486;-63
2021/03/03 02:21:12;;;;;;;2.30;2.10;;;24.40;50.70;;;;;;5074017;28;20439;-64
2021/03/03 02:23:45;;;;;;;2.50;2.30;;;24.40;50.70;;;;;;5073926;28;20447;-66
2021/03/03 02:26:23;;;;;;;2.10;1.90;;;24.40;50.70;;;;;;5073786;28;20439;-66
2021/03/03 02:28:51;;;;;;;2.93;2.70;;;24.40;50.70;;;;;;5073702;28;20459;-66
2021/03/03 02:31:18;;;;;;;2.60;2.40;;;24.40;50.70;;;;;;5073547;28;20439;-66
2021/03/03 02:33:46;;;;;;;2.80;2.60;;;24.40;50.80;;;;;;5073617;28;20447;-64
2021/03/03 02:36:13;;;;;;;2.70;2.50;;;24.40;50.70;;;;;;5073582;28;20941;-63
2021/03/03 02:38:41;;;;;;;3.30;3.10;;;24.40;50.70;;;;;;5073297;28;20479;-64
2021/03/03 02:41:10;;;;;;;2.30;2.20;;;24.40;50.60;;;;;;5073575;28;20954;-61
2021/03/03 02:43:39;;;;;;;2.47;2.27;;;24.40;50.60;;;;;;5073326;28;20447;-63
2021/03/03 02:46:06;;;;;;;2.20;2.07;;;24.40;50.60;;;;;;5073531;28;21001;-66
2021/03/03 02:48:32;;;;;;;2.30;2.17;;;24.40;50.60;;;;;;5073512;28;20446;-66
2021/03/03 02:50:59;;;;;;;2.67;2.47;;;24.40;50.60;;;;;;5073427;28;20864;-65
2021/03/03 02:53:25;;;;;;;2.73;2.53;;;24.40;50.70;;;;;;5073224;28;20500;-63
2021/03/03 02:55:51;;;;;;;2.53;2.40;;;24.40;50.60;;;;;;5073458;28;20452;-62
2021/03/03 02:58:20;;;;;;;2.47;2.33;;;24.40;50.70;;;;;;5073489;28;20486;-65
2021/03/03 03:00:51;;;;;;;3.27;3.07;;;24.40;50.60;;;;;;5073480;28;20448;-65
2021/03/03 03:03:23;;;;;;;2.97;2.77;;;24.40;50.60;;;;;;5072821;28;20446;-63
2021/03/03 03:06:02;;;;;;;3.00;2.80;;;24.40;50.70;;;;;;5073345;28;20455;-67
2021/03/03 03:08:32;;;;;;;2.77;2.50;;;24.40;50.60;;;;;;5073420;28;20443;-63
2021/03/03 03:11:01;;;;;;;3.10;2.87;;;24.40;51.20;;;;;;5073580;28;20546;-63
2021/03/03 03:13:29;;;;;;;3.37;3.17;;;24.40;50.70;;;;;;5073089;28;20433;-63
2021/03/03 03:15:58;;;;;;;2.60;2.40;;;24.40;50.70;;;;;;5073269;28;20524;-66
2021/03/03 03:18:29;;;;;;;3.00;2.80;;;24.40;50.60;;;;;;5072946;28;20485;-64
2021/03/03 03:20:57;;;;;;;2.87;2.67;;;24.20;50.40;;;;;;5073267;28;20435;-63
2021/03/03 03:23:23;;;;;;;3.03;2.83;;;24.50;50.70;;;;;;5072910;28;20534;-62
2021/03/03 03:25:52;;;;;;;2.90;2.70;;;24.40;50.60;;;;;;5073178;28;20798;-65
2021/03/03 03:28:19;;;;;;;2.80;2.37;;;24.40;50.60;;;;;;5072938;28;20454;-66
2021/03/03 03:30:45;;;;;;;2.97;2.70;;;24.40;50.60;;;;;;5073134;28;20518;-66
2021/03/03 03:33:17;;;;;;;3.13;2.93;;;24.40;50.60;;;;;;5072933;28;20840;-66
2021/03/03 03:35:44;;;;;;;3.07;2.87;;;24.40;50.60;;;;;;5072941;28;20964;-67
2021/03/03 03:38:10;;;;;;;2.90;2.70;;;24.40;50.70;;;;;;5072854;28;20476;-63
2021/03/03 03:40:37;;;;;;;2.63;2.43;;;24.40;50.60;;;;;;5072871;28;20448;-66
2021/03/03 03:43:07;;;;;;;2.40;2.20;;;24.40;50.60;;;;;;5072622;28;20443;-66
2021/03/03 03:45:35;;;;;;;2.70;2.50;;;24.40;50.70;;;;;;5072919;28;20450;-67
2021/03/03 03:48:02;;;;;;;2.80;2.60;;;24.40;50.70;;;;;;5072842;28;20447;-66
2021/03/03 03:50:30;;;;;;;2.97;2.77;;;24.40;50.60;;;;;;5072991;28;20436;-66
2021/03/03 03:52:57;;;;;;;3.07;2.77;;;24.40;50.60;;;;;;5072805;28;20443;-66
2021/03/03 03:55:33;;;;;;;2.63;2.43;;;24.40;50.60;;;;;;5072714;28;20505;-65
2021/03/03 03:58:00;;;;;;;3.07;2.87;;;24.40;50.50;;;;;;5072700;28;20438;-66
2021/03/03 04:00:27;;;;;;;3.03;2.83;;;24.40;50.60;;;;;;5072586;28;20448;-66
2021/03/03 04:02:54;;;;;;;3.07;2.87;;;24.40;50.70;;;;;;5072404;28;20449;-66
2021/03/03 04:05:21;;;;;;;3.23;2.93;;;24.40;50.60;;;;;;5072793;28;20976;-66
2021/03/03 04:07:48;;;;;;;2.80;2.60;;;24.40;50.60;;;;;;5072709;28;20521;-66
2021/03/03 04:10:16;;;;;;;2.67;2.57;;;24.50;50.70;;;;;;5072557;28;20436;-66
2021/03/03 04:12:43;;;;;;;2.97;2.77;;;24.40;50.60;;;;;;5072597;28;20444;-66
2021/03/03 04:15:11;;;;;;;3.53;3.23;;;24.40;51.20;;;;;;5073923;28;20443;-66
2021/03/03 04:17:38;;;;;;;3.37;3.10;;;24.40;50.70;;;;;;5076008;28;20443;-63
2021/03/03 04:20:07;;;;;;;2.83;2.63;;;24.40;50.60;;;;;;5076005;28;20525;-63
2021/03/03 04:22:34;;;;;;;2.80;2.60;;;24.40;50.60;;;;;;5076125;28;20441;-66
2021/03/03 04:25:09;;;;;;;3.03;2.83;;;24.40;50.60;;;;;;5076297;28;20545;-65
2021/03/03 04:27:35;;;;;;;3.50;3.30;;;24.40;50.60;;;;;;5076053;28;20450;-62
2021/03/03 04:30:02;;;;;;;3.30;3.10;;;24.40;50.60;;;;;;5076030;28;20783;-65
2021/03/03 04:32:29;;;;;;;2.70;2.50;;;24.40;50.60;;;;;;5075732;28;20780;-63
2021/03/03 04:34:55;;;;;;;2.80;2.60;;;24.40;50.60;;;;;;5075664;28;20467;-62
2021/03/03 04:37:21;;;;;;;3.03;2.83;;;24.40;50.60;;;;;;5075800;28;20446;-62
2021/03/03 04:39:48;;;;;;;3.63;3.33;;;24.40;50.60;;;;;;5075757;28;21000;-65
2021/03/03 04:42:17;;;;;;;2.77;2.57;;;24.30;50.50;;;;;;5075600;28;20530;-65
2021/03/03 04:44:43;;;;;;;3.53;3.23;;;24.40;50.60;;;;;;5075587;28;21002;-66
2021/03/03 04:47:09;;;;;;;3.07;2.87;;;24.40;50.60;;;;;;5075614;28;20798;-66
2021/03/03 04:49:36;;;;;;;2.80;2.60;;;24.40;50.60;;;;;;5075559;28;20447;-62
2021/03/03 04:52:02;;;;;;;3.40;3.20;;;24.40;50.60;;;;;;5075613;28;20445;-62
2021/03/03 04:54:28;;;;;;;2.87;2.67;;;24.40;50.60;;;;;;5075295;28;20479;-62
2021/03/03 04:56:55;;;;;;;3.17;2.90;;;24.40;50.60;;;;;;5075437;28;20852;-61
2021/03/03 04:59:22;;;;;;;3.17;2.97;;;24.40;50.50;;;;;;5075231;28;20500;-63
2021/03/03 05:01:48;;;;;;;3.20;3.00;;;24.40;50.60;;;;;;5075370;28;20444;-62
2021/03/03 05:04:14;;;;;;;3.37;3.17;;;24.50;50.60;;;;;;5075283;28;20464;-62
2021/03/03 05:06:41;;;;;;;2.90;2.70;;;24.40;50.60;;;;;;5075471;28;20530;-62
2021/03/03 05:09:07;;;;;;;3.20;3.00;;;24.40;50.60;;;;;;5075247;28;20775;-66
2021/03/03 05:11:33;;;;;;;3.03;2.83;;;24.40;50.60;;;;;;5075102;28;20950;-66
2021/03/03 05:13:59;;;;;;;3.20;3.00;;;24.40;50.60;;;;;;5075119;28;20439;-64
2021/03/03 05:16:26;;;;;;;3.00;2.80;;;24.40;50.60;;;;;;5074928;28;20443;-66
2021/03/03 05:18:53;;;;;;;3.20;2.90;;;24.40;50.70;;;;;;5074886;28;20487;-65
2021/03/03 05:21:19;;;;;;;2.77;2.57;;;24.40;50.60;;;;;;5074953;28;20452;-65
2021/03/03 05:23:45;;;;;;;3.40;3.10;;;24.40;50.60;;;;;;5074934;28;20443;-66
2021/03/03 05:26:12;;;;;;;3.37;3.17;;;24.40;50.70;;;;;;5074485;28;20474;-65
2021/03/03 05:28:39;;;;;;;3.40;3.20;;;24.30;50.50;;;;;;5074775;28;20439;-66
2021/03/03 05:31:05;;;;;;;3.00;2.80;;;24.40;50.60;;;;;;5074726;28;20987;-67
2021/03/03 05:33:33;;;;;;;3.07;2.87;;;24.40;50.70;;;;;;5074639;28;20449;-65
2021/03/03 05:36:02;;;;;;;3.10;2.90;;;24.40;50.70;;;;;;5074548;28;20470;-66
2021/03/03 05:38:28;;;;;;;3.10;2.90;;;24.40;50.60;;;;;;5074551;28;20485;-64
2021/03/03 05:40:56;;;;;;;3.30;3.10;;;24.40;50.70;;;;;;5074521;28;20482;-66
2021/03/03 05:43:23;;;;;;;3.50;3.30;;;24.40;50.60;;;;;;5074588;28;20444;-66
2021/03/03 05:45:50;;;;;;;4.00;2.40;;;24.30;50.50;;;;;;5074569;28;20435;-64
2021/03/03 05:48:24;;;;;;;3.43;3.23;;;24.40;50.60;;;;;;5074531;28;20536;-66
2021/03/03 05:50:57;;;;;;;3.07;2.87;;;24.40;50.60;;;;;;5074594;28;20429;-64
2021/03/03 05:53:24;;;;;;;3.40;3.13;;;24.40;50.70;;;;;;5074127;28;20477;-64
2021/03/03 05:55:53;;;;;;;3.03;2.83;;;24.30;50.60;;;;;;5074200;28;20432;-64
2021/03/03 05:58:20;;;;;;;2.77;2.57;;;24.40;50.70;;;;;;5074476;28;20823;-63
2021/03/03 06:00:49;;;;;;;3.33;3.13;;;24.40;50.70;;;;;;5074186;28;20838;-63
2021/03/03 06:03:16;;;;;;;8.33;4.10;;;24.40;50.60;;;;;;5076165;28;20432;-63
2021/03/03 06:05:46;;;;;;;4.10;3.80;;;24.30;50.50;;;;;;5081507;28;20454;-63
2021/03/03 06:08:13;;;;;;;4.60;3.57;;;24.30;50.40;;;;;;5082263;28;20523;-63
2021/03/03 06:10:40;;;;;;;5.20;3.83;;;24.30;50.30;;;;;;5083464;28;20426;-64
2021/03/03 06:13:06;;;;;;;4.10;3.30;;;24.30;50.40;;;;;;5081903;28;20446;-62
2021/03/03 06:15:33;;;;;;;3.90;2.50;;;24.30;50.60;;;;;;5082295;28;20437;-63
2021/03/03 06:17:59;;;;;;;4.57;3.53;;;24.40;50.80;;;;;;5083364;28;20431;-65
2021/03/03 06:20:26;;;;;;;3.97;3.67;;;24.30;50.60;;;;;;5081609;28;20440;-63
2021/03/03 06:22:52;;;;;;;3.27;3.07;;;24.40;50.70;;;;;;5082236;28;20439;-65
2021/03/03 06:25:21;;;;;;;4.03;3.43;;;24.30;50.60;;;;;;5073633;28;20439;-65
2021/03/03 06:27:48;;;;;;;3.50;3.20;;;24.30;50.50;;;;;;5073647;28;20957;-66
2021/03/03 06:30:16;;;;;;;3.77;3.40;;;24.30;50.50;;;;;;5073549;28;20450;-65
2021/03/03 06:32:56;;;;;;;3.07;2.83;;;24.30;50.40;;;;;;5073498;28;20435;-65
2021/03/03 06:35:35;;;;;;;2.80;2.30;;;24.50;50.80;;;;;;5073460;28;20465;-66
2021/03/03 06:38:01;;;;;;;3.30;3.10;;;24.30;50.90;;;;;;5072739;28;20797;-65
2021/03/03 06:40:28;;;;;;;5.90;3.00;;;24.30;51.10;;;;;;5073582;28;20440;-63
2021/03/03 06:42:55;;;;;;;4.43;3.00;;;24.30;51.10;;;;;;5073380;28;20445;-62
2021/03/03 06:45:29;;;;;;;2.93;2.73;;;24.30;51.00;;;;;;5073340;28;20440;-64
2021/03/03 06:47:55;;;;;;;7.67;3.30;;;24.30;51.10;;;;;;5073443;28;20509;-62
2021/03/03 06:50:31;;;;;;;2.77;2.57;;;24.30;51.00;;;;;;5073483;28;20446;-66
2021/03/03 06:52:57;;;;;;;3.50;3.13;;;24.30;51.00;;;;;;5073341;28;20439;-66
2021/03/03 06:55:23;;;;;;;3.43;3.13;;;24.30;51.00;;;;;;5073393;28;20483;-65
2021/03/03 06:57:52;;;;;;;3.57;3.27;;;24.40;51.10;;;;;;5073325;28;20472;-63
2021/03/03 07:00:42;;;;;;;8.40;2.90;;;24.40;51.30;;;;;;5073162;28;20512;-65
2021/03/03 07:03:23;;;;;;;4.93;3.00;;;24.40;51.30;;;;;;5073230;28;20445;-66
2021/03/03 07:05:50;;;;;;;4.53;2.83;;;24.40;51.30;;;;;;5073146;28;20517;-63
2021/03/03 07:08:16;;;;;;;8.10;5.97;;;24.40;51.30;;;;;;5073092;28;20850;-63
2021/03/03 07:10:42;;;;;;;7.57;5.83;;;24.40;50.90;;;;;;5072971;28;20451;-65
2021/03/03 07:13:09;;;;;;;8.57;4.20;;;24.40;50.60;;;;;;5073195;28;20794;-65
2021/03/03 07:15:36;;;;;;;6.30;4.17;;;24.40;50.50;;;;;;5073280;28;20455;-63
2021/03/03 07:18:02;;;;;;;8.37;3.97;;;24.40;50.80;;;;;;5073280;28;20449;-66
2021/03/03 07:20:28;;;;;;;3.63;3.33;;;24.40;51.10;;;;;;5072859;28;20486;-65
2021/03/03 07:22:57;;;;;;;4.20;3.83;;;24.40;51.10;;;;;;5073027;28;20439;-63
2021/03/03 07:25:23;;;;;;;4.83;4.03;;;24.40;51.20;;;;;;5073030;28;20470;-62
2021/03/03 07:27:51;;;;;;;6.13;3.57;;;24.40;51.10;;;;;;5073021;28;20440;-66
2021/03/03 07:30:20;;;;;;;3.43;3.03;;;24.40;51.10;;;;;;5073045;28;20486;-66
2021/03/03 07:32:47;;;;;;;3.77;3.40;;;24.40;51.10;;;;;;5072857;28;20443;-66
2021/03/03 07:35:14;;;;;;;3.50;3.20;;;24.40;51.10;;;;;;5073031;28;20455;-65
2021/03/03 07:37:43;;;;;;;6.80;3.40;;;24.30;51.00;;;;;;5072978;28;20443;-67
2021/03/03 07:40:12;;;;;;;6.23;4.30;;;24.40;51.10;;;;;;5073071;28;20494;-66
2021/03/03 07:42:40;;;;;;;4.93;3.53;;;24.40;51.00;;;;;;5072753;28;20454;-66
2021/03/03 07:45:08;;;;;;;4.00;3.10;;;24.40;51.00;;;;;;5072862;28;20446;-68
2021/03/03 07:47:37;;;;;;;4.63;3.43;;;24.40;51.00;;;;;;5072711;28;20795;-65
2021/03/03 07:50:07;;;;;;;4.50;4.10;;;24.40;51.00;;;;;;5075629;28;20454;-67
2021/03/03 07:52:34;;;;;;;4.77;3.67;;;24.40;51.40;;;;;;5076271;28;20472;-67
2021/03/03 07:55:01;;;;;;;4.70;4.30;;;24.40;50.80;;;;;;5075461;28;20838;-67
2021/03/03 07:57:29;;;;;;;3.80;3.50;;;24.40;50.80;;;;;;5076528;28;20440;-67
2021/03/03 07:59:56;;;;;;;4.17;3.77;;;24.40;50.90;;;;;;5076551;28;20494;-66
2021/03/03 08:02:41;;;;;;;3.63;3.37;;;24.40;51.00;;;;;;5076276;28;20443;-66
2021/03/03 08:05:10;;;;;;;4.93;3.33;;;24.40;51.20;;;;;;5076118;28;20467;-66
2021/03/03 08:07:36;;;;;;;3.40;3.20;;;24.40;51.30;;;;;;5076326;28;20444;-63
2021/03/03 08:10:32;;;;;;;3.17;2.97;;;24.40;51.30;;;;;;5076226;28;20814;-67
2021/03/03 08:13:02;;;;;;;3.57;3.27;;;24.40;51.40;;;;;;5076299;28;20479;-63
2021/03/03 08:15:36;;;;;;;4.80;3.70;;;24.40;51.40;;;;;;5076259;28;20982;-65
2021/03/03 08:18:16;;;;;;;8.03;3.90;;;24.40;51.30;;;;;;5076083;28;20489;-65
2021/03/03 08:20:46;;;;;;;4.50;4.10;;;24.40;51.40;;;;;;5075378;28;20450;-67
2021/03/03 08:23:12;;;;;;;7.23;4.10;;;24.40;51.10;;;;;;5073882;28;20450;-62
2021/03/03 08:25:43;;;;;;;3.90;3.60;;;24.40;51.20;;;;;;5074725;28;20454;-63
2021/03/03 08:28:25;;;;;;;5.00;4.10;;;24.40;51.20;;;;;;5075787;28;20447;-66
2021/03/03 08:31:32;;;;;;;4.23;3.80;;;24.50;51.20;;;;;;5074379;28;20516;-66
2021/03/03 08:34:06;;;;;;;9.73;5.13;;;24.50;51.10;;;;;;5075443;28;20467;-61
2021/03/03 08:36:54;;;;;;;6.53;5.23;;;24.50;51.20;;;;;;5075675;28;20439;-66
2021/03/03 08:39:27;;;;;;;15.37;5.00;;;24.50;51.00;;;;;;5075672;28;20517;-65
2021/03/03 08:41:53;;;;;;;6.07;4.80;;;24.50;51.00;;;;;;5075826;28;20435;-62
2021/03/03 08:44:20;;;;;;;6.63;4.67;;;24.50;51.00;;;;;;5075574;28;20451;-66
2021/03/03 08:46:48;;;;;;;6.73;5.30;;;24.50;51.00;;;;;;5073549;28;20447;-66
2021/03/03 08:49:27;;;;;;;10.07;4.83;;;24.50;51.00;;;;;;5075420;28;20447;-67
2021/03/03 08:52:11;;;;;;;7.67;4.47;;;24.50;50.90;;;;;;5075365;28;20476;-66
2021/03/03 08:54:55;;;;;;;8.47;4.17;;;24.50;51.00;;;;;;5075012;28;21070;-66
2021/03/03 08:57:33;;;;;;;10.57;4.27;;;24.60;51.60;;;;;;5075444;28;20952;-66
2021/03/03 09:00:00;;;;;;;7.83;4.43;;;24.60;51.00;;;;;;5074885;28;20905;-62
2021/03/03 09:02:41;;;;;;;5.43;3.83;;;24.50;51.00;;;;;;5075129;28;20444;-66
2021/03/03 09:05:11;;;;;;;3.77;3.47;;;24.60;51.10;;;;;;5075202;28;20475;-64
2021/03/03 09:07:39;;;;;;;4.20;3.90;;;24.50;51.00;;;;;;5075404;28;20493;-63
2021/03/03 09:10:09;;;;;;;4.67;4.17;;;24.50;51.10;;;;;;5075159;28;20448;-67
2021/03/03 09:12:39;;;;;;;3.83;3.63;;;24.60;51.20;;;;;;5075358;28;20436;-63
2021/03/03 09:15:11;;;;;;;3.43;3.17;;;24.60;51.20;;;;;;5075143;28;20491;-62
2021/03/03 09:17:38;;;;;;;4.23;3.47;;;24.60;51.20;;;;;;5075072;28;20500;-62
2021/03/03 09:20:07;;;;;;;3.47;3.27;;;24.60;51.10;;;;;;5075004;28;20993;-63
2021/03/03 09:22:35;;;;;;;5.23;3.87;;;24.60;51.10;;;;;;5074872;28;20440;-67
2021/03/03 09:25:11;;;;;;;3.37;3.13;;;24.60;51.20;;;;;;5075201;28;20779;-64
2021/03/03 09:27:38;;;;;;;3.70;3.40;;;24.70;51.20;;;;;;5075008;28;20856;-66
2021/03/03 09:30:06;;;;;;;3.20;3.00;;;24.60;51.20;;;;;;5074799;28;20436;-63
2021/03/03 09:32:32;;;;;;;3.23;2.93;;;24.60;51.20;;;;;;5074696;28;20437;-63
2021/03/03 09:35:02;;;;;;;10.33;4.20;;;24.60;51.20;;;;;;5074526;28;20468;-66
2021/03/03 09:37:35;;;;;;;3.50;3.20;;;24.60;51.20;;;;;;5074672;28;20442;-61
2021/03/03 09:40:02;;;;;;;3.63;3.33;;;24.70;51.30;;;;;;5074704;28;20498;-63
2021/03/03 09:42:37;;;;;;;3.53;3.23;;;24.60;51.20;;;;;;5074719;28;20439;-61
2021/03/03 09:45:06;;;;;;;3.53;3.20;;;24.70;51.40;;;;;;5074716;28;20459;-62
2021/03/03 09:47:33;;;;;;;2.97;2.73;;;24.70;51.30;;;;;;5074394;28;20437;-65
2021/03/03 09:50:01;;;;;;;5.83;3.40;;;24.70;51.40;;;;;;5074356;28;20512;-66
2021/03/03 09:52:33;;;;;;;17.53;6.57;;;24.70;51.40;;;;;;5074328;28;20433;-64
2021/03/03 09:55:00;;;;;;;19.97;7.80;;;24.70;51.20;;;;;;5074067;28;20490;-61
2021/03/03 09:57:26;;;;;;;15.70;5.67;;;24.60;50.30;;;;;;5074317;28;20443;-61
2021/03/03 09:59:56;;;;;;;14.83;5.83;;;24.60;50.60;;;;;;5074004;28;20480;-65
2021/03/03 10:02:25;;;;;;;15.07;5.33;;;24.70;51.00;;;;;;5074033;28;20444;-65
2021/03/03 10:04:52;;;;;;;7.70;4.77;;;24.60;51.20;;;;;;5073875;28;20653;-65
2021/03/03 10:07:21;;;;;;;8.47;4.70;;;24.60;51.30;;;;;;5074050;28;20437;-63
2021/03/03 10:09:50;;;;;;;11.47;3.67;;;24.70;51.40;;;;;;5073963;28;20455;-66
2021/03/03 10:12:18;;;;;;;5.33;3.87;;;24.70;51.50;;;;;;5073035;28;20803;-65
2021/03/03 10:14:57;;;;;;;3.87;3.50;;;24.70;51.50;;;;;;5074133;28;20446;-67
2021/03/03 10:17:35;;;;;;;4.90;4.10;;;24.70;51.50;;;;;;5073852;28;20539;-68
2021/03/03 10:20:03;;;;;;;7.37;4.23;;;24.70;51.60;;;;;;5073756;28;20831;-62
2021/03/03 10:22:30;;;;;;;8.93;4.30;;;24.70;51.70;;;;;;5073738;28;20443;-62
2021/03/03 10:25:01;;;;;;;4.10;3.80;;;24.70;51.80;;;;;;5073638;28;20451;-62
2021/03/03 10:27:35;;;;;;;4.60;3.60;;;24.70;51.70;;;;;;5073599;28;20444;-63
2021/03/03 10:30:19;;;;;;;3.40;3.10;;;24.70;51.80;;;;;;5073683;28;20440;-63
2021/03/03 10:32:45;;;;;;;9.83;3.80;;;24.70;51.70;;;;;;5073555;28;20447;-67
2021/03/03 10:35:11;;;;;;;8.53;3.07;;;24.70;51.70;;;;;;5073542;28;20794;-67
2021/03/03 10:37:38;;;;;;;4.10;3.20;;;24.70;51.70;;;;;;5073558;28;20451;-67
2021/03/03 10:40:10;;;;;;;3.27;2.83;;;24.70;51.80;;;;;;5073551;28;20893;-65
2021/03/03 10:42:37;;;;;;;4.83;3.33;;;24.70;51.90;;;;;;5073436;28;20450;-66
2021/03/03 10:45:15;;;;;;;3.93;3.40;;;24.80;51.90;;;;;;5073811;28;20440;-67
2021/03/03 10:47:45;;;;;;;3.70;2.50;;;24.80;51.90;;;;;;5073369;28;20757;-61
2021/03/03 10:50:12;;;;;;;4.40;3.27;;;24.70;51.80;;;;;;5073357;28;20455;-68
2021/03/03 10:52:40;;;;;;;4.80;2.80;;;24.80;51.90;;;;;;5073313;28;20444;-65
2021/03/03 10:55:20;;;;;;;4.27;2.80;;;24.80;51.90;;;;;;5073118;28;20544;-67
2021/03/03 10:58:04;;;;;;;3.40;3.10;;;24.80;51.90;;;;;;5073273;28;20439;-64
2021/03/03 11:00:32;;;;;;;3.60;3.30;;;24.80;51.90;;;;;;5073350;28;20517;-66
2021/03/03 11:03:03;;;;;;;3.40;3.00;;;24.80;51.90;;;;;;5073152;28;20436;-66
2021/03/03 11:05:30;;;;;;;3.73;3.40;;;24.80;51.90;;;;;;5073270;28;20769;-66
2021/03/03 11:07:56;;;;;;;4.20;3.83;;;24.80;51.90;;;;;;5073226;28;20447;-63
2021/03/03 11:10:23;;;;;;;5.67;3.30;;;24.80;51.90;;;;;;5073241;28;20444;-63
2021/03/03 11:12:49;;;;;;;4.33;3.43;;;24.80;51.90;;;;;;5073144;28;20432;-65
2021/03/03 11:15:17;;;;;;;3.57;3.23;;;24.90;52.00;;;;;;5073104;28;20440;-64
2021/03/03 11:17:44;;;;;;;3.97;3.37;;;24.80;51.90;;;;;;5073061;28;20441;-69
2021/03/03 11:20:12;;;;;;;3.90;3.50;;;24.80;51.90;;;;;;5073228;28;20821;-65
2021/03/03 11:22:38;;;;;;;3.73;3.23;;;24.80;52.00;;;;;;5072916;28;20592;-63
2021/03/03 11:25:06;;;;;;;4.83;3.33;;;24.90;52.10;;;;;;5076366;28;20437;-66
2021/03/03 11:27:32;;;;;;;4.20;3.33;;;24.80;52.10;;;;;;5077208;28;20522;-66
2021/03/03 11:29:59;;;;;;;8.73;3.47;;;24.90;52.30;;;;;;5077272;28;20778;-66
2021/03/03 11:32:25;;;;;;;4.03;3.67;;;24.90;52.30;;;;;;5076861;28;20445;-66
2021/03/03 11:34:53;;;;;;;2.90;2.70;;;24.90;52.40;;;;;;5076930;28;20472;-67
2021/03/03 11:37:19;;;;;;;3.80;3.50;;;24.90;52.40;;;;;;5077036;28;20447;-66
2021/03/03 11:39:45;;;;;;;3.33;3.03;;;25.00;52.50;;;;;;5076761;28;20813;-65
2021/03/03 11:42:12;;;;;;;3.40;3.10;;;25.00;52.50;;;;;;5076786;28;20440;-62
2021/03/03 11:44:38;;;;;;;4.33;3.40;;;25.00;52.60;;;;;;5076746;28;20436;-67
2021/03/03 11:47:05;;;;;;;3.03;2.83;;;25.00;52.60;;;;;;5076781;28;20440;-66
2021/03/03 11:49:31;;;;;;;5.60;2.90;;;25.00;52.60;;;;;;5076622;28;20954;-69
2021/03/03 11:51:58;;;;;;;3.23;3.00;;;25.00;52.60;;;;;;5076640;28;20440;-69
2021/03/03 11:54:25;;;;;;;3.87;3.53;;;25.00;52.70;;;;;;5076469;28;20472;-65
2021/03/03 11:56:51;;;;;;;4.50;3.40;;;25.00;52.80;;;;;;5076576;28;20472;-63
2021/03/03 11:59:17;;;;;;;3.63;2.93;;;25.00;52.90;;;;;;5076362;28;20479;-66
2021/03/03 12:01:43;;;;;;;3.40;3.10;;;25.10;52.90;;;;;;5076465;28;21350;-65
2021/03/03 12:04:10;;;;;;;4.50;2.77;;;25.10;52.90;;;;;;5076262;28;20456;-67
2021/03/03 12:06:36;;;;;;;3.60;3.30;;;25.10;52.90;;;;;;5076351;28;20445;-63
2021/03/03 12:09:03;;;;;;;4.03;3.43;;;25.10;52.90;;;;;;5076202;28;20942;-70
2021/03/03 12:11:29;;;;;;;3.73;3.43;;;25.10;52.90;;;;;;5076133;28;20807;-68
2021/03/03 12:13:56;;;;;;;4.23;3.07;;;25.10;53.00;;;;;;5076068;28;20526;-68
2021/03/03 12:16:22;;;;;;;3.30;3.00;;;25.10;52.90;;;;;;5076216;28;20516;-66
2021/03/03 12:18:48;;;;;;;3.43;3.10;;;25.10;52.90;;;;;;5076104;28;20428;-69
2021/03/03 12:21:14;;;;;;;3.03;2.80;;;25.10;53.00;;;;;;5076095;28;20463;-68
2021/03/03 12:23:41;;;;;;;3.57;3.27;;;25.10;53.00;;;;;;5076081;28;20464;-66
2021/03/03 12:26:08;;;;;;;3.33;3.03;;;25.10;53.00;;;;;;5076131;28;20440;-68
2021/03/03 12:28:35;;;;;;;3.17;2.97;;;25.20;53.20;;;;;;5076019;28;20441;-68
2021/03/03 12:31:02;;;;;;;5.77;3.30;;;25.20;53.20;;;;;;5075905;28;20794;-64
2021/03/03 12:33:28;;;;;;;3.67;3.40;;;25.20;53.00;;;;;;5075792;28;20552;-66
2021/03/03 12:35:54;;;;;;;8.60;4.43;;;25.20;53.00;;;;;;5074847;28;20872;-67
2021/03/03 12:38:20;;;;;;;5.00;4.50;;;25.20;52.90;;;;;;5075914;28;20449;-63
2021/03/03 12:40:47;;;;;;;5.10;4.50;;;25.20;52.80;;;;;;5075708;28;20487;-64
2021/03/03 12:43:14;;;;;;;6.63;4.70;;;25.20;52.60;;;;;;5075649;28;20940;-71
2021/03/03 12:45:40;;;;;;;8.23;5.60;;;25.20;52.60;;;;;;5075869;28;20455;-66
2021/03/03 12:48:06;;;;;;;9.50;5.67;;;25.20;52.60;;;;;;5075576;28;20436;-64
2021/03/03 12:50:33;;;;;;;6.33;5.27;;;25.20;52.50;;;;;;5075389;28;20441;-64
2021/03/03 12:52:59;;;;;;;16.23;5.27;;;25.10;52.40;;;;;;5075466;28;20851;-65